Bethesda, United Kingdom
Current Conditions -  °F | °C
As of 5:50 PM on Thursday 30 Oct 2014 (Local Time) from EGOV Reporting Station
Drizzle Drizzle  
Wind Chill: 59°   Ceiling: 900
Heat Index: 59°   Visibility: 4mi
Dew Point: 59°   Wind: 16mph
Humidity: 100%   Direction: 180°S
Pressure: 29.91"   Gusts: NA
Location:  53.17°N, 4.08°W
Report Text: EGOV 301750Z 18014KT 6000 -DZ OVC009 15/15 Q1013 GRN
Loading
Personal Weather Stations






























Interactive Weather Map
Tropical Storm Tracking
New forecast layout! Learn more

10-Day Weather Forecast

Advertisements
Track Severe Weather on mobile